sensor_id;sensor_type;location;lat;lon;timestamp;P1;durP1;ratioP1;P2;durP2;ratioP2
31348;SDS011;17976;48.480;11.946;2022-11-14T16:38:04;7.65;;;4.57;;
31348;SDS011;17976;48.480;11.946;2022-11-14T16:40:30;7.70;;;5.20;;
31348;SDS011;17976;48.480;11.946;2022-11-14T16:42:57;10.75;;;6.20;;
31348;SDS011;17976;48.480;11.946;2022-11-14T16:45:23;9.85;;;5.82;;
31348;SDS011;17976;48.480;11.946;2022-11-14T16:47:50;9.18;;;6.35;;
31348;SDS011;17976;48.480;11.946;2022-11-14T16:50:19;10.80;;;6.32;;
31348;SDS011;17976;48.480;11.946;2022-11-14T16:52:45;9.07;;;5.90;;
31348;SDS011;17976;48.480;11.946;2022-11-14T16:55:11;9.98;;;6.63;;
31348;SDS011;17976;48.480;11.946;2022-11-14T16:57:38;10.80;;;6.55;;
31348;SDS011;17976;48.480;11.946;2022-11-14T17:00:05;15.13;;;7.15;;
31348;SDS011;17976;48.480;11.946;2022-11-14T17:02:31;10.77;;;6.85;;
31348;SDS011;17976;48.480;11.946;2022-11-14T17:04:57;13.35;;;7.45;;
31348;SDS011;17976;48.480;11.946;2022-11-14T17:07:23;13.05;;;7.15;;
31348;SDS011;17976;48.480;11.946;2022-11-14T17:09:49;12.10;;;7.70;;
31348;SDS011;17976;48.480;11.946;2022-11-14T17:12:15;18.77;;;8.27;;
31348;SDS011;17976;48.480;11.946;2022-11-14T17:14:41;14.98;;;7.78;;
31348;SDS011;17976;48.480;11.946;2022-11-14T17:17:07;12.75;;;8.30;;
31348;SDS011;17976;48.480;11.946;2022-11-14T17:19:33;15.27;;;9.48;;
31348;SDS011;17976;48.480;11.946;2022-11-14T17:21:59;18.55;;;10.05;;
31348;SDS011;17976;48.480;11.946;2022-11-14T17:24:25;19.23;;;11.10;;
31348;SDS011;17976;48.480;11.946;2022-11-14T17:26:51;20.05;;;10.55;;
31348;SDS011;17976;48.480;11.946;2022-11-14T17:29:17;22.60;;;11.35;;
31348;SDS011;17976;48.480;11.946;2022-11-14T17:31:43;22.35;;;13.02;;
31348;SDS011;17976;48.480;11.946;2022-11-14T17:34:09;19.50;;;10.63;;
31348;SDS011;17976;48.480;11.946;2022-11-14T17:36:35;26.00;;;15.10;;
31348;SDS011;17976;48.480;11.946;2022-11-14T17:39:01;29.08;;;16.55;;
31348;SDS011;17976;48.480;11.946;2022-11-14T17:41:27;33.65;;;18.52;;
31348;SDS011;17976;48.480;11.946;2022-11-14T17:43:53;34.40;;;18.95;;
31348;SDS011;17976;48.480;11.946;2022-11-14T17:46:21;29.65;;;18.55;;
31348;SDS011;17976;48.480;11.946;2022-11-14T17:48:47;29.77;;;18.05;;
31348;SDS011;17976;48.480;11.946;2022-11-14T17:51:13;32.15;;;19.60;;
31348;SDS011;17976;48.480;11.946;2022-11-14T17:53:40;38.00;;;18.13;;
31348;SDS011;17976;48.480;11.946;2022-11-14T17:56:06;33.13;;;18.75;;
31348;SDS011;17976;48.480;11.946;2022-11-14T17:58:33;33.70;;;18.83;;
31348;SDS011;17976;48.480;11.946;2022-11-14T18:00:59;34.50;;;17.55;;
31348;SDS011;17976;48.480;11.946;2022-11-14T18:03:26;35.22;;;17.98;;
31348;SDS011;17976;48.480;11.946;2022-11-14T18:05:52;31.50;;;17.70;;
31348;SDS011;17976;48.480;11.946;2022-11-14T18:08:28;33.42;;;16.90;;
31348;SDS011;17976;48.480;11.946;2022-11-14T18:10:58;36.58;;;19.65;;
31348;SDS011;17976;48.480;11.946;2022-11-14T18:13:24;32.60;;;20.25;;
31348;SDS011;17976;48.480;11.946;2022-11-14T18:15:50;43.55;;;22.98;;
31348;SDS011;17976;48.480;11.946;2022-11-14T18:18:16;41.92;;;21.20;;
31348;SDS011;17976;48.480;11.946;2022-11-14T18:20:44;38.03;;;20.48;;
31348;SDS011;17976;48.480;11.946;2022-11-14T18:23:10;37.92;;;20.00;;
31348;SDS011;17976;48.480;11.946;2022-11-14T18:25:36;39.83;;;20.90;;
31348;SDS011;17976;48.480;11.946;2022-11-14T18:28:02;43.75;;;20.65;;
31348;SDS011;17976;48.480;11.946;2022-11-14T18:30:28;35.38;;;19.77;;
31348;SDS011;17976;48.480;11.946;2022-11-14T18:32:54;38.60;;;20.08;;
31348;SDS011;17976;48.480;11.946;2022-11-14T18:35:20;39.80;;;19.08;;
31348;SDS011;17976;48.480;11.946;2022-11-14T18:37:46;31.60;;;18.77;;
31348;SDS011;17976;48.480;11.946;2022-11-14T18:40:12;34.40;;;19.17;;
31348;SDS011;17976;48.480;11.946;2022-11-14T18:42:38;32.53;;;19.10;;
31348;SDS011;17976;48.480;11.946;2022-11-14T18:45:04;37.45;;;19.55;;
31348;SDS011;17976;48.480;11.946;2022-11-14T18:47:31;32.85;;;16.85;;
31348;SDS011;17976;48.480;11.946;2022-11-14T18:49:57;27.30;;;15.32;;
31348;SDS011;17976;48.480;11.946;2022-11-14T18:52:24;30.33;;;15.93;;
31348;SDS011;17976;48.480;11.946;2022-11-14T18:54:50;25.15;;;13.82;;
31348;SDS011;17976;48.480;11.946;2022-11-14T18:57:16;24.90;;;13.25;;
31348;SDS011;17976;48.480;11.946;2022-11-14T18:59:42;25.88;;;13.68;;
31348;SDS011;17976;48.480;11.946;2022-11-14T19:02:08;24.33;;;13.15;;
31348;SDS011;17976;48.480;11.946;2022-11-14T19:04:34;20.17;;;12.57;;
31348;SDS011;17976;48.480;11.946;2022-11-14T19:07:00;21.58;;;11.50;;
31348;SDS011;17976;48.480;11.946;2022-11-14T19:09:26;39.78;;;19.90;;
31348;SDS011;17976;48.480;11.946;2022-11-14T19:11:52;20.55;;;13.02;;
31348;SDS011;17976;48.480;11.946;2022-11-14T19:14:37;21.77;;;12.57;;
31348;SDS011;17976;48.480;11.946;2022-11-14T19:17:03;22.77;;;12.35;;
31348;SDS011;17976;48.480;11.946;2022-11-14T19:19:30;21.10;;;11.63;;
31348;SDS011;17976;48.480;11.946;2022-11-14T19:21:56;22.40;;;12.75;;
31348;SDS011;17976;48.480;11.946;2022-11-14T19:24:22;26.60;;;13.40;;
31348;SDS011;17976;48.480;11.946;2022-11-14T19:26:48;25.42;;;12.95;;
31348;SDS011;17976;48.480;11.946;2022-11-14T19:29:14;25.55;;;14.95;;
31348;SDS011;17976;48.480;11.946;2022-11-14T19:31:41;25.70;;;14.65;;
31348;SDS011;17976;48.480;11.946;2022-11-14T19:34:07;27.30;;;14.68;;
31348;SDS011;17976;48.480;11.946;2022-11-14T19:36:34;26.98;;;15.80;;
31348;SDS011;17976;48.480;11.946;2022-11-14T19:39:00;25.58;;;15.15;;
31348;SDS011;17976;48.480;11.946;2022-11-14T19:41:27;27.52;;;15.15;;
31348;SDS011;17976;48.480;11.946;2022-11-14T19:43:54;27.92;;;14.25;;
31348;SDS011;17976;48.480;11.946;2022-11-14T19:46:20;24.23;;;14.13;;
31348;SDS011;17976;48.480;11.946;2022-11-14T19:48:46;25.65;;;14.55;;
31348;SDS011;17976;48.480;11.946;2022-11-14T19:51:13;24.10;;;15.27;;
31348;SDS011;17976;48.480;11.946;2022-11-14T19:53:41;23.85;;;14.30;;
31348;SDS011;17976;48.480;11.946;2022-11-14T19:56:10;29.58;;;15.07;;
31348;SDS011;17976;48.480;11.946;2022-11-14T19:58:37;24.83;;;13.65;;
31348;SDS011;17976;48.480;11.946;2022-11-14T20:01:04;23.10;;;13.13;;
31348;SDS011;17976;48.480;11.946;2022-11-14T20:03:31;24.27;;;14.25;;
31348;SDS011;17976;48.480;11.946;2022-11-14T20:05:57;21.75;;;12.73;;
31348;SDS011;17976;48.480;11.946;2022-11-14T20:08:23;22.80;;;13.50;;
31348;SDS011;17976;48.480;11.946;2022-11-14T20:10:56;29.45;;;13.77;;
31348;SDS011;17976;48.480;11.946;2022-11-14T20:13:22;24.20;;;13.45;;
31348;SDS011;17976;48.480;11.946;2022-11-14T20:15:48;23.02;;;13.48;;
31348;SDS011;17976;48.480;11.946;2022-11-14T20:18:14;87.72;;;41.28;;
31348;SDS011;17976;48.480;11.946;2022-11-14T20:20:40;31.75;;;16.85;;
31348;SDS011;17976;48.480;11.946;2022-11-14T20:23:07;26.05;;;14.65;;
31348;SDS011;17976;48.480;11.946;2022-11-14T20:25:36;26.50;;;14.48;;
31348;SDS011;17976;48.480;11.946;2022-11-14T20:28:02;27.02;;;13.98;;
31348;SDS011;17976;48.480;11.946;2022-11-14T20:30:36;27.13;;;14.23;;
31348;SDS011;17976;48.480;11.946;2022-11-14T20:33:02;23.42;;;12.98;;
31348;SDS011;17976;48.480;11.946;2022-11-14T20:35:29;28.80;;;14.27;;
31348;SDS011;17976;48.480;11.946;2022-11-14T20:37:54;32.03;;;13.13;;
31348;SDS011;17976;48.480;11.946;2022-11-14T20:40:20;27.17;;;14.00;;
31348;SDS011;17976;48.480;11.946;2022-11-14T20:42:47;28.10;;;13.55;;
31348;SDS011;17976;48.480;11.946;2022-11-14T20:45:13;24.83;;;14.07;;
31348;SDS011;17976;48.480;11.946;2022-11-14T20:47:39;28.45;;;15.13;;
31348;SDS011;17976;48.480;11.946;2022-11-14T20:50:05;24.33;;;13.75;;
31348;SDS011;17976;48.480;11.946;2022-11-14T20:52:31;24.70;;;13.98;;
31348;SDS011;17976;48.480;11.946;2022-11-14T20:54:57;23.52;;;12.82;;
31348;SDS011;17976;48.480;11.946;2022-11-14T20:57:24;27.00;;;13.25;;
31348;SDS011;17976;48.480;11.946;2022-11-14T20:59:50;27.35;;;13.73;;
